createdAt,value
2018-12-12T00:02:02.793Z,95073.78
2018-12-12T00:04:32.858Z,95076.97
2018-12-12T00:24:23.575Z,95090.02
2018-12-12T00:26:53.495Z,95092.84
2018-12-12T00:46:44.694Z,95102.33
2018-12-12T00:49:14.323Z,95107.00
2018-12-12T00:51:44.019Z,95100.27
2018-12-12T00:54:13.347Z,95099.66
2018-12-12T00:56:43.154Z,95098.79
2018-12-12T01:16:34.461Z,95106.27
2018-12-12T01:19:04.253Z,95103.31
2018-12-12T01:21:33.763Z,95098.89
2018-12-12T01:24:03.396Z,95102.76
2018-12-12T01:29:10.748Z,95104.05
2018-12-12T01:31:40.531Z,95098.54
2018-12-12T01:34:10.217Z,95093.30
2018-12-12T01:36:40.011Z,95096.13
2018-12-12T01:39:10.039Z,95096.58
2018-12-12T01:41:39.771Z,95095.14
2018-12-12T01:44:09.327Z,95098.60
2018-12-12T01:46:39.017Z,95102.64
2018-12-12T01:49:08.612Z,95103.13
2018-12-12T01:51:38.008Z,95096.42
2018-12-12T01:54:07.732Z,95094.52
2018-12-12T01:56:37.303Z,95094.91
2018-12-12T01:59:06.819Z,95090.43
2018-12-12T02:01:36.667Z,95093.30
2018-12-12T02:04:06.225Z,95098.39
2018-12-12T02:06:35.740Z,95094.08
2018-12-12T02:09:06.391Z,95102.64
2018-12-12T02:11:35.887Z,95099.08
2018-12-12T02:31:27.573Z,95111.14
2018-12-12T02:51:19.471Z,95095.33
2018-12-12T02:53:49.513Z,95091.13
2018-12-12T03:13:40.404Z,95092.36
2018-12-12T03:16:10.280Z,95093.16
2018-12-12T03:18:40.064Z,95084.69
2018-12-12T03:21:09.626Z,95080.77
2018-12-12T03:23:39.241Z,95084.09
2018-12-12T03:43:30.351Z,95084.03
2018-12-12T03:45:59.812Z,95092.48
2018-12-12T03:48:29.521Z,95088.87
2018-12-12T03:50:58.976Z,95096.27
2018-12-12T03:53:28.755Z,95096.29
2018-12-12T03:55:58.184Z,95103.52
2018-12-12T03:58:27.696Z,95102.64
2018-12-12T04:00:57.295Z,95097.75
2018-12-12T04:03:26.722Z,95095.67
2018-12-12T04:05:56.034Z,95105.21
2018-12-12T04:08:25.895Z,95103.64
2018-12-12T04:10:55.248Z,95105.03
2018-12-12T04:13:24.732Z,95105.84
2018-12-12T04:15:54.520Z,95112.70
2018-12-12T04:35:44.991Z,95125.91
2018-12-12T04:38:14.655Z,95125.39
2018-12-12T04:40:44.113Z,95119.95
2018-12-12T04:43:13.401Z,95124.35
2018-12-12T04:45:43.151Z,95126.44
2018-12-12T04:48:12.437Z,95133.06
2018-12-12T04:50:43.688Z,95139.13
2018-12-12T04:53:14.171Z,95146.37
2018-12-12T04:55:43.627Z,95134.22
2018-12-12T04:58:12.929Z,95145.80
2018-12-12T05:00:42.540Z,95151.09
2018-12-12T05:20:34.426Z,95156.38
2018-12-12T05:23:03.861Z,95159.24
2018-12-12T05:25:33.288Z,95157.28
2018-12-12T05:28:02.878Z,95161.33
2018-12-12T05:30:32.816Z,95162.62
2018-12-12T05:33:02.395Z,95161.84
2018-12-12T05:35:31.791Z,95167.23
2018-12-12T05:55:23.578Z,95176.61
2018-12-12T05:57:52.894Z,95172.98
2018-12-12T06:00:22.546Z,95182.69
2018-12-12T06:02:52.094Z,95183.47
2018-12-12T06:05:21.655Z,95176.48
2018-12-12T06:07:50.899Z,95185.50
2018-12-12T06:10:20.378Z,95177.88
2018-12-12T06:12:49.837Z,95181.30
2018-12-12T06:15:19.387Z,95189.17
2018-12-12T06:17:49.335Z,95182.04
2018-12-12T06:20:18.976Z,95193.30
2018-12-12T06:40:10.787Z,95208.63
2018-12-12T06:42:40.251Z,95209.10
2018-12-12T07:02:31.008Z,95218.06
2018-12-12T07:22:22.631Z,95231.58
2018-12-12T07:42:14.595Z,95247.29
2018-12-12T07:44:43.996Z,95250.23
2018-12-12T07:47:14.439Z,95256.23
2018-12-12T08:07:05.867Z,95264.11
2018-12-12T08:09:35.882Z,95260.13
2018-12-12T08:12:05.058Z,95268.96
2018-12-12T08:31:55.972Z,95277.03
2018-12-12T08:34:25.524Z,95280.83
2018-12-12T08:36:55.084Z,95286.11
2018-12-12T08:39:24.858Z,95284.58
2018-12-12T08:41:54.454Z,95283.46
2018-12-12T08:44:24.122Z,95290.93
2018-12-12T08:46:54.891Z,95293.55
2018-12-12T08:49:24.242Z,95291.09
2018-12-12T08:51:53.776Z,95291.42
2018-12-12T08:54:23.533Z,95290.26
2018-12-12T08:56:53.057Z,95292.58
2018-12-12T08:59:22.411Z,95297.91
2018-12-12T09:01:51.874Z,95289.71
2018-12-12T09:04:21.267Z,95299.58
2018-12-12T09:06:50.758Z,95291.00
2018-12-12T09:26:41.671Z,95267.34
2018-12-12T09:46:33.219Z,95265.86
2018-12-12T10:06:24.733Z,95233.81
2018-12-12T10:29:10.770Z,95224.21
2018-12-12T10:31:40.471Z,95219.66
2018-12-12T10:34:09.835Z,95214.22
2018-12-12T10:36:39.487Z,95223.72
2018-12-12T10:39:09.995Z,95219.25
2018-12-12T10:41:39.288Z,95221.98
2018-12-12T10:44:09.234Z,95221.89
2018-12-12T10:46:38.700Z,95221.28
2018-12-12T10:49:08.345Z,95215.80
2018-12-12T11:08:59.750Z,95208.13
2018-12-12T11:11:29.001Z,95213.78
2018-12-12T11:13:58.559Z,95212.30
2018-12-12T11:16:28.373Z,95210.94
2018-12-12T11:18:57.879Z,95214.91
2018-12-12T11:21:27.403Z,95210.52
2018-12-12T11:23:57.136Z,95215.41
2018-12-12T11:26:26.715Z,95190.96
2018-12-12T11:28:56.047Z,95188.39
2018-12-12T11:31:26.150Z,95194.22
2018-12-12T11:33:55.851Z,95183.58
2018-12-12T11:36:25.200Z,95177.70
2018-12-12T11:38:54.794Z,95179.30
2018-12-12T11:41:24.238Z,95181.56
2018-12-12T11:43:53.765Z,95173.94
2018-12-12T11:46:23.442Z,95181.34
2018-12-12T11:48:52.974Z,95170.75
2018-12-12T11:51:22.415Z,95183.23
2018-12-12T11:53:52.231Z,95166.03
2018-12-12T11:56:21.540Z,95156.78
2018-12-12T11:58:51.009Z,95167.91
2018-12-12T12:01:20.341Z,95168.70
2018-12-12T12:03:49.881Z,95162.55
2018-12-12T12:06:19.310Z,95168.11
2018-12-12T12:08:49.170Z,95164.11
2018-12-12T12:11:18.628Z,95167.14
2018-12-12T12:13:48.212Z,95169.08
2018-12-12T12:33:38.884Z,95196.71
2018-12-12T12:36:08.537Z,95194.33
2018-12-12T12:38:37.775Z,95201.11
2018-12-12T12:41:07.618Z,95195.75
2018-12-12T12:43:37.194Z,95200.75
2018-12-12T12:46:06.675Z,95211.70
2018-12-12T12:48:36.235Z,95216.67
2018-12-12T12:51:05.766Z,95209.91
2018-12-12T12:53:35.294Z,95214.48
2018-12-12T12:56:05.164Z,95214.08
2018-12-12T12:58:34.538Z,95213.48
2018-12-12T13:01:03.820Z,95217.77
2018-12-12T13:03:33.576Z,95220.48
2018-12-12T13:06:02.957Z,95227.85
2018-12-12T13:08:32.619Z,95223.27
2018-12-12T13:11:02.404Z,95219.86
2018-12-12T13:13:32.039Z,95223.86
2018-12-12T13:16:01.411Z,95230.53
2018-12-12T13:18:31.202Z,95232.11
2018-12-12T13:21:00.435Z,95232.62
2018-12-12T13:40:52.336Z,95249.92
2018-12-12T13:43:21.639Z,95250.31
2018-12-12T13:45:50.891Z,95253.42
2018-12-12T13:48:20.688Z,95251.31
2018-12-12T13:50:50.045Z,95254.91
2018-12-12T14:10:42.372Z,95273.58
2018-12-12T14:13:11.885Z,95276.08
2018-12-12T14:15:41.333Z,95277.77
2018-12-12T14:18:12.658Z,95268.25
2018-12-12T14:20:42.264Z,95282.77
2018-12-12T14:23:13.048Z,95282.68
2018-12-12T14:25:42.683Z,95276.59
2018-12-12T14:28:12.158Z,95281.56
2018-12-12T14:30:41.672Z,95276.70
2018-12-12T14:33:11.071Z,95281.97
2018-12-12T14:35:40.579Z,95277.09
2018-12-12T14:38:10.232Z,95280.77
2018-12-12T14:40:39.520Z,95280.73
2018-12-12T14:43:08.952Z,95282.30
2018-12-12T15:03:06.952Z,95295.38
2018-12-12T15:05:36.767Z,95292.39
2018-12-12T15:08:06.278Z,95293.77
2018-12-12T15:10:35.911Z,95284.91
2018-12-12T15:13:05.404Z,95288.98
2018-12-12T15:15:35.102Z,95290.05
2018-12-12T15:18:04.802Z,95292.67
2018-12-12T15:37:56.970Z,95299.80
2018-12-12T15:40:26.407Z,95297.69
2018-12-12T15:42:55.658Z,95298.77
2018-12-12T15:45:25.386Z,95303.70
2018-12-12T15:47:55.219Z,95303.63
2018-12-12T15:50:27.584Z,95300.07
2018-12-12T15:55:50.127Z,95304.52
2018-12-12T15:58:19.995Z,95307.23
2018-12-12T16:00:49.446Z,95302.67
2018-12-12T16:03:18.927Z,95304.52
2018-12-12T16:05:48.834Z,95304.52
2018-12-12T16:08:18.752Z,95300.34
2018-12-12T16:10:49.172Z,95299.06
2018-12-12T16:13:18.840Z,95303.95
2018-12-12T16:15:48.908Z,95297.93
2018-12-12T16:18:19.480Z,95295.58
2018-12-12T16:20:49.882Z,95299.50
2018-12-12T16:23:19.305Z,95302.41
2018-12-12T16:25:50.548Z,95302.28
2018-12-12T16:28:20.032Z,95302.20
2018-12-12T16:30:49.563Z,95301.32
2018-12-12T16:33:19.371Z,95307.30
2018-12-12T16:35:48.836Z,95305.92
2018-12-12T16:38:18.682Z,95304.58
2018-12-12T16:40:48.379Z,95314.37
2018-12-12T16:43:18.040Z,95314.92
2018-12-12T16:45:47.732Z,95313.27
2018-12-12T16:48:17.476Z,95303.61
2018-12-12T16:50:47.136Z,95308.03
2018-12-12T16:53:17.196Z,95312.73
2018-12-12T16:55:47.021Z,95314.23
2018-12-12T16:58:16.346Z,95313.63
2018-12-12T17:00:45.796Z,95319.48
2018-12-12T17:03:15.764Z,95316.28
2018-12-12T17:05:46.320Z,95317.50
2018-12-12T17:08:15.842Z,95317.14
2018-12-12T17:10:45.742Z,95323.35
2018-12-12T17:13:15.351Z,95325.33
2018-12-12T17:15:44.956Z,95327.64
2018-12-12T17:18:15.585Z,95336.88
2018-12-12T17:20:45.152Z,95335.66
2018-12-12T17:23:16.639Z,95341.98
2018-12-12T17:25:46.149Z,95338.30
2018-12-12T17:28:15.679Z,95336.87
2018-12-12T17:30:46.594Z,95346.43
2018-12-12T17:33:16.173Z,95348.65
2018-12-12T17:35:46.637Z,95346.13
2018-12-12T17:38:16.357Z,95354.14
2018-12-12T17:40:46.016Z,95351.16
2018-12-12T17:43:15.587Z,95350.88
2018-12-12T17:45:45.414Z,95345.71
2018-12-12T17:48:14.931Z,95342.66
2018-12-12T17:50:44.510Z,95350.67
2018-12-12T17:53:14.002Z,95349.31
2018-12-12T17:55:43.499Z,95340.61
2018-12-12T17:58:15.341Z,95338.91
2018-12-12T18:00:44.899Z,95333.01
2018-12-12T18:03:16.602Z,95334.22
2018-12-12T18:05:46.321Z,95331.25
2018-12-12T18:08:15.642Z,95329.18
2018-12-12T18:10:45.194Z,95336.52
2018-12-12T18:13:14.671Z,95334.34
2018-12-12T18:15:44.344Z,95334.25
2018-12-12T18:18:18.162Z,95332.73
2018-12-12T18:20:47.657Z,95337.37
2018-12-12T18:23:17.351Z,95342.46
2018-12-12T18:25:48.507Z,95351.38
2018-12-12T18:28:18.240Z,95351.51
2018-12-12T18:30:48.840Z,95361.73
2018-12-12T18:33:18.894Z,95360.73
2018-12-12T18:35:49.761Z,95364.34
2018-12-12T18:38:19.682Z,95358.77
2018-12-12T18:40:50.585Z,95366.06
2018-12-12T18:43:20.088Z,95361.52
2018-12-12T18:45:50.365Z,95362.73
2018-12-12T18:48:28.373Z,95365.39
2018-12-12T18:51:00.600Z,95371.23
2018-12-12T18:53:30.821Z,95371.71
2018-12-12T18:56:01.270Z,95371.20
2018-12-12T18:58:31.772Z,95375.64
2018-12-12T19:01:01.447Z,95380.84
2018-12-12T19:03:32.734Z,95376.80
2018-12-12T19:06:02.512Z,95380.97
2018-12-12T19:08:32.160Z,95383.13
2018-12-12T19:11:02.905Z,95379.77
2018-12-12T19:13:32.632Z,95387.33
2018-12-12T19:16:03.559Z,95381.73
2018-12-12T19:18:33.487Z,95390.53
2018-12-12T19:21:03.184Z,95387.64
2018-12-12T19:23:32.664Z,95393.30
2018-12-12T19:26:02.729Z,95392.38
2018-12-12T19:28:32.312Z,95384.67
2018-12-12T19:31:01.917Z,95392.20
2018-12-12T19:33:31.704Z,95397.05
2018-12-12T19:36:01.549Z,95367.14
2018-12-12T19:38:31.376Z,95390.33
2018-12-12T19:41:03.117Z,95386.21
2018-12-12T19:43:32.695Z,95397.34
2018-12-12T19:46:02.235Z,95387.45
2018-12-12T19:48:31.855Z,95384.70
2018-12-12T19:51:01.310Z,95387.78
2018-12-12T19:53:31.130Z,95384.25
2018-12-12T19:56:00.747Z,95386.48
2018-12-12T19:58:30.257Z,95384.84
2018-12-12T20:00:59.983Z,95388.36
2018-12-12T20:03:29.823Z,95385.45
2018-12-12T20:05:59.331Z,95386.11
2018-12-12T20:08:29.020Z,95381.13
2018-12-12T20:10:58.842Z,95379.68
2018-12-12T20:13:28.461Z,95381.31
2018-12-12T20:15:58.037Z,95386.58
2018-12-12T20:18:28.274Z,95382.63
2018-12-12T20:20:57.677Z,95388.19
2018-12-12T20:23:27.961Z,95385.20
2018-12-12T20:25:57.773Z,95390.47
2018-12-12T20:28:27.892Z,95386.23
2018-12-12T20:30:57.375Z,95388.45
2018-12-12T20:33:27.227Z,95390.77
2018-12-12T20:35:56.831Z,95388.14
2018-12-12T20:38:26.674Z,95385.79
2018-12-12T20:40:56.317Z,95387.59
2018-12-12T20:43:25.849Z,95391.72
2018-12-12T20:45:55.487Z,95393.80
2018-12-12T20:48:25.343Z,95393.87
2018-12-12T20:50:54.919Z,95392.70
2018-12-12T20:53:30.827Z,95393.41
2018-12-12T20:56:00.150Z,95389.17
2018-12-12T20:58:30.706Z,95395.52
2018-12-12T21:01:00.552Z,95390.59
2018-12-12T21:03:30.072Z,95392.05
2018-12-12T21:05:59.574Z,95386.92
2018-12-12T21:08:29.688Z,95387.88
2018-12-12T21:11:01.322Z,95394.84
2018-12-12T21:13:34.574Z,95394.89
2018-12-12T21:16:07.718Z,95393.47
2018-12-12T21:18:37.501Z,95393.91
2018-12-12T21:21:07.103Z,95395.43
2018-12-12T21:23:40.031Z,95394.28
2018-12-12T21:26:12.031Z,95394.52
2018-12-12T21:28:46.718Z,95393.47
2018-12-12T21:31:16.653Z,95388.74
2018-12-12T21:33:48.382Z,95396.71
2018-12-12T21:36:22.417Z,95398.52
2018-12-12T21:38:55.342Z,95399.19
2018-12-12T21:41:27.223Z,95400.52
2018-12-12T21:43:57.046Z,95406.45
2018-12-12T21:46:28.533Z,95402.95
2018-12-12T21:49:04.072Z,95401.30
2018-12-12T21:51:33.820Z,95404.95
2018-12-12T21:54:05.227Z,95405.44
2018-12-12T21:56:36.595Z,95415.75
2018-12-12T21:59:07.519Z,95412.55
2018-12-12T22:01:39.750Z,95414.13
2018-12-12T22:04:19.562Z,95405.27
2018-12-12T22:06:49.087Z,95407.23
2018-12-12T22:09:18.541Z,95409.19
2018-12-12T22:11:48.255Z,95403.75
2018-12-12T22:14:17.991Z,95406.73
2018-12-12T22:16:47.727Z,95401.24
2018-12-12T22:19:17.694Z,95402.75
2018-12-12T22:21:47.371Z,95399.14
2018-12-12T22:24:16.836Z,95397.08
2018-12-12T22:26:46.649Z,95401.50
2018-12-12T22:29:15.895Z,95402.38
2018-12-12T22:31:45.119Z,95399.80
2018-12-12T22:34:17.405Z,95401.39
2018-12-12T22:36:46.991Z,95402.83
2018-12-12T22:39:23.004Z,95403.16
2018-12-12T22:41:52.496Z,95398.97
2018-12-12T22:44:22.105Z,95401.50
2018-12-12T22:46:51.969Z,95398.92
2018-12-12T22:49:21.627Z,95397.69
2018-12-12T22:51:51.360Z,95400.36
2018-12-12T22:54:21.200Z,95400.36
2018-12-12T22:56:50.794Z,95386.27
2018-12-12T22:59:20.196Z,95392.79
2018-12-12T23:01:49.466Z,95393.74
2018-12-12T23:04:18.737Z,95398.05
2018-12-12T23:06:48.272Z,95393.96
2018-12-12T23:09:18.039Z,95392.97
2018-12-12T23:11:47.414Z,95397.42
2018-12-12T23:14:16.772Z,95394.58
2018-12-12T23:16:46.655Z,95392.14
2018-12-12T23:19:16.236Z,95392.70
2018-12-12T23:21:46.012Z,95392.11
2018-12-12T23:24:15.496Z,95396.86
2018-12-12T23:26:44.943Z,95400.72
2018-12-12T23:29:14.346Z,95398.48
2018-12-12T23:31:44.396Z,95395.97
2018-12-12T23:34:13.685Z,95393.97
2018-12-12T23:36:43.255Z,95396.09
2018-12-12T23:39:12.580Z,95406.39
2018-12-12T23:41:42.090Z,95395.77
2018-12-12T23:44:11.798Z,95404.71
2018-12-12T23:46:41.754Z,95404.38
2018-12-12T23:49:11.158Z,95408.72
2018-12-12T23:51:40.591Z,95407.73
2018-12-12T23:54:10.281Z,95410.58
2018-12-12T23:56:39.523Z,95412.41
2018-12-12T23:59:09.127Z,95419.16
